Time;durP1;ratioP1;P1;durP2;ratioP2;P2;SDS_P1;SDS_P2;PMS_P1;PMS_P2;Temp;Humidity;BMP_temperature;BMP_pressure;BME280_temperature;BME280_humidity;BME280_pressure;Samples;Min_cycle;Max_cycle;Signal;HPM_P1;HPM_P2
2021/04/07 00:01:57;;;;;;;14.97;7.50;;;;;;;;;;5044501;28;20512;-96
2021/04/07 00:04:25;;;;;;;9.10;6.87;;;;;;;;;;5038670;28;20472;-96
2021/04/07 00:06:53;;;;;;;7.97;6.60;;;;;;;;;;5065893;28;20444;-96
2021/04/07 00:09:19;;;;;;;10.13;6.60;;;;;;;;;;5054034;28;20493;-95
2021/04/07 00:11:45;;;;;;;10.40;6.30;;;;;;;;;;5055562;28;20511;-94
2021/04/07 00:14:12;;;;;;;9.30;6.80;;;;;;;;;;5058629;28;20493;-96
2021/04/07 00:16:38;;;;;;;7.03;5.90;;;;;;;;;;5044504;28;20942;-96
2021/04/07 00:19:10;;;;;;;13.80;6.63;;;;;;;;;;5046109;28;20455;-95
2021/04/07 00:21:38;;;;;;;8.27;6.87;;;;;;;;;;5055507;28;20446;-96
2021/04/07 00:24:04;;;;;;;10.53;6.50;;;;;;;;;;5066020;28;20428;-96
2021/04/07 00:26:34;;;;;;;9.83;6.70;;;;;;;;;;5056101;28;20507;-96
2021/04/07 00:29:00;;;;;;;9.40;6.50;;;;;;;;;;5046467;28;20506;-96
2021/04/07 00:31:26;;;;;;;10.37;7.17;;;;;;;;;;5060279;28;20453;-94
2021/04/07 00:33:55;;;;;;;8.90;6.87;;;;;;;;;;5062381;28;20459;-96
2021/04/07 00:36:26;;;;;;;9.97;6.60;;;;;;;;;;5052218;28;20473;-96
2021/04/07 00:38:52;;;;;;;9.33;6.93;;;;;;;;;;5058804;28;20440;-96
2021/04/07 00:41:18;;;;;;;10.67;7.07;;;;;;;;;;5059916;28;20466;-94
2021/04/07 00:43:45;;;;;;;9.97;6.60;;;;;;;;;;5064037;28;20452;-94
2021/04/07 00:46:11;;;;;;;12.50;7.77;;;;;;;;;;5066983;28;20469;-95
2021/04/07 00:48:40;;;;;;;11.03;7.43;;;;;;;;;;5068398;28;20436;-96
2021/04/07 00:51:06;;;;;;;10.20;6.70;;;;;;;;;;5054826;28;20468;-95
2021/04/07 00:53:35;;;;;;;11.53;7.73;;;;;;;;;;5053853;28;20454;-96
2021/04/07 00:56:02;;;;;;;8.87;7.90;;;;;;;;;;5046176;28;20467;-95
2021/04/07 00:58:28;;;;;;;13.80;8.00;;;;;;;;;;5066818;28;20453;-96
2021/04/07 01:00:55;;;;;;;9.63;7.43;;;;;;;;;;5062561;28;20464;-95
2021/04/07 01:03:21;;;;;;;10.07;6.60;;;;;;;;;;5056041;28;20469;-96
2021/04/07 01:05:47;;;;;;;10.90;7.80;;;;;;;;;;5018739;23;20514;-96
2021/04/07 01:08:13;;;;;;;8.93;7.70;;;;;;;;;;5017259;28;20443;-96
2021/04/07 01:10:40;;;;;;;7.67;6.87;;;;;;;;;;5028830;28;20497;-96
2021/04/07 01:13:07;;;;;;;8.33;6.47;;;;;;;;;;5016202;28;20488;-95
2021/04/07 01:15:34;;;;;;;9.90;7.37;;;;;;;;;;5017269;28;20544;-96
2021/04/07 01:18:02;;;;;;;9.60;7.60;;;;;;;;;;5008044;28;20462;-96
2021/04/07 01:20:30;;;;;;;10.03;7.67;;;;;;;;;;5023168;28;20450;-96
2021/04/07 01:23:00;;;;;;;10.80;8.40;;;;;;;;;;5016231;28;20453;-94
2021/04/07 01:25:30;;;;;;;11.07;7.77;;;;;;;;;;5009236;28;20465;-94
2021/04/07 01:27:56;;;;;;;12.13;8.70;;;;;;;;;;5008081;28;20442;-96
2021/04/07 01:30:23;;;;;;;10.30;8.17;;;;;;;;;;5000052;28;20485;-96
2021/04/07 01:32:49;;;;;;;15.40;8.70;;;;;;;;;;5013922;28;20819;-96
2021/04/07 01:35:16;;;;;;;16.33;8.03;;;;;;;;;;5015835;28;20462;-96
2021/04/07 01:37:42;;;;;;;13.40;8.30;;;;;;;;;;5014743;28;20453;-95
2021/04/07 01:40:09;;;;;;;12.63;8.07;;;;;;;;;;5018021;28;20454;-95
2021/04/07 01:42:36;;;;;;;13.40;8.87;;;;;;;;;;5007733;28;20548;-96
2021/04/07 01:45:04;;;;;;;10.10;8.20;;;;;;;;;;5013601;28;20454;-96
2021/04/07 01:47:30;;;;;;;10.90;8.30;;;;;;;;;;5020356;28;20444;-95
2021/04/07 01:49:57;;;;;;;12.40;8.63;;;;;;;;;;5008938;28;20486;-95
2021/04/07 01:52:23;;;;;;;13.97;9.07;;;;;;;;;;5016594;28;20444;-93
2021/04/07 01:54:53;;;;;;;15.33;9.40;;;;;;;;;;5013163;28;20485;-96
2021/04/07 01:57:20;;;;;;;15.47;9.30;;;;;;;;;;5014023;28;20450;-95
2021/04/07 01:59:52;;;;;;;15.53;8.80;;;;;;;;;;5007607;28;20469;-96
2021/04/07 02:02:19;;;;;;;16.63;9.00;;;;;;;;;;5015529;28;20451;-95
2021/04/07 02:04:45;;;;;;;15.77;9.30;;;;;;;;;;5012693;28;20515;-95
2021/04/07 02:07:12;;;;;;;13.13;8.80;;;;;;;;;;5020055;28;20443;-94
2021/04/07 02:09:38;;;;;;;12.60;8.77;;;;;;;;;;5024058;28;20495;-95
2021/04/07 02:12:04;;;;;;;14.30;8.50;;;;;;;;;;5013594;28;20449;-94
2021/04/07 02:14:30;;;;;;;13.00;9.20;;;;;;;;;;5023643;28;20482;-96
2021/04/07 02:17:00;;;;;;;13.60;8.53;;;;;;;;;;5024517;28;20458;-95
2021/04/07 02:19:28;;;;;;;11.53;8.57;;;;;;;;;;5014694;28;20863;-96
2021/04/07 02:22:01;;;;;;;13.60;7.83;;;;;;;;;;5019090;28;20460;-96
2021/04/07 02:24:27;;;;;;;9.23;7.30;;;;;;;;;;4994814;28;20585;-96
2021/04/07 02:26:53;;;;;;;11.37;7.50;;;;;;;;;;5021232;28;20457;-93
2021/04/07 02:29:20;;;;;;;15.50;7.73;;;;;;;;;;5013844;28;20488;-94
2021/04/07 02:31:53;;;;;;;12.07;7.63;;;;;;;;;;5008634;28;20442;-94
2021/04/07 02:34:22;;;;;;;14.03;9.23;;;;;;;;;;5020464;28;20461;-94
2021/04/07 02:36:48;;;;;;;12.97;7.47;;;;;;;;;;5021629;28;20477;-96
2021/04/07 02:39:14;;;;;;;10.70;7.87;;;;;;;;;;5018249;28;20457;-94
2021/04/07 02:41:40;;;;;;;8.63;6.70;;;;;;;;;;5016737;28;20466;-93
2021/04/07 02:44:06;;;;;;;11.47;8.00;;;;;;;;;;5022261;28;20467;-96
2021/04/07 02:46:33;;;;;;;9.37;7.40;;;;;;;;;;5014499;28;20448;-96
2021/04/07 02:48:59;;;;;;;16.80;7.77;;;;;;;;;;5003580;28;20456;-96
2021/04/07 02:51:26;;;;;;;9.03;7.63;;;;;;;;;;5023841;28;20462;-96
2021/04/07 02:53:52;;;;;;;12.30;7.93;;;;;;;;;;5019300;28;20469;-95
2021/04/07 02:56:18;;;;;;;12.70;7.83;;;;;;;;;;5014759;28;20477;-95
2021/04/07 02:58:44;;;;;;;11.67;7.00;;;;;;;;;;5017997;28;20448;-95
2021/04/07 03:01:10;;;;;;;9.63;6.80;;;;;;;;;;5023876;28;20484;-96
2021/04/07 03:03:36;;;;;;;8.17;6.23;;;;;;;;;;5020279;28;20456;-96
2021/04/07 03:06:02;;;;;;;14.37;7.70;;;;;;;;;;5022694;28;20479;-96
2021/04/07 03:08:34;;;;;;;10.83;6.93;;;;;;;;;;5026765;28;20440;-96
2021/04/07 03:11:00;;;;;;;9.43;6.37;;;;;;;;;;5020448;28;20520;-96
2021/04/07 03:13:26;;;;;;;9.50;7.00;;;;;;;;;;5019600;28;20455;-96
2021/04/07 03:15:52;;;;;;;9.20;7.50;;;;;;;;;;5014912;28;20470;-95
2021/04/07 03:18:18;;;;;;;9.80;7.40;;;;;;;;;;5011611;28;20447;-95
2021/04/07 03:20:46;;;;;;;10.47;8.00;;;;;;;;;;5018069;28;20460;-96
2021/04/07 03:23:15;;;;;;;8.37;6.67;;;;;;;;;;5019837;28;20540;-96
2021/04/07 03:25:42;;;;;;;13.93;8.60;;;;;;;;;;5018319;28;20502;-96
2021/04/07 03:28:08;;;;;;;8.80;7.70;;;;;;;;;;5019419;28;20466;-95
2021/04/07 03:33:15;;;;;;;8.77;7.07;;;;;;;;;;5027583;28;20436;-96
2021/04/07 03:35:45;;;;;;;10.67;7.77;;;;;;;;;;5019706;28;20461;-96
2021/04/07 03:38:16;;;;;;;12.17;7.53;;;;;;;;;;5016967;28;20847;-96
2021/04/07 03:40:43;;;;;;;12.67;7.70;;;;;;;;;;5009470;28;20554;-95
2021/04/07 03:43:09;;;;;;;12.13;8.80;;;;;;;;;;5022613;28;20493;-96
2021/04/07 03:45:36;;;;;;;12.23;8.20;;;;;;;;;;5021584;28;20426;-96
2021/04/07 03:48:03;;;;;;;11.70;7.80;;;;;;;;;;5016323;28;20518;-95
2021/04/07 03:50:29;;;;;;;11.47;7.33;;;;;;;;;;5027649;28;20486;-96
2021/04/07 03:52:55;;;;;;;8.13;6.57;;;;;;;;;;5020026;28;20442;-96
2021/04/07 03:55:21;;;;;;;9.77;6.73;;;;;;;;;;5023777;28;20444;-95
2021/04/07 03:57:48;;;;;;;9.23;7.17;;;;;;;;;;5017329;28;20446;-96
2021/04/07 04:00:15;;;;;;;10.67;6.73;;;;;;;;;;5014624;28;20451;-96
2021/04/07 04:02:41;;;;;;;6.90;5.30;;;;;;;;;;5016364;28;20513;-95
2021/04/07 04:05:07;;;;;;;6.50;5.67;;;;;;;;;;5016449;28;20486;-96
2021/04/07 04:07:33;;;;;;;8.87;6.27;;;;;;;;;;5017502;28;20448;-96
2021/04/07 04:10:00;;;;;;;8.57;6.40;;;;;;;;;;5033100;28;20467;-96
2021/04/07 04:12:26;;;;;;;10.57;9.00;;;;;;;;;;5012733;28;20455;-96
2021/04/07 04:14:53;;;;;;;10.73;9.63;;;;;;;;;;5016536;28;20482;-95
2021/04/07 04:17:19;;;;;;;14.30;11.37;;;;;;;;;;5012133;28;20458;-96
2021/04/07 04:19:45;;;;;;;10.97;7.67;;;;;;;;;;5016681;28;20468;-96
2021/04/07 04:22:11;;;;;;;13.27;9.13;;;;;;;;;;5014374;28;20460;-95
2021/04/07 04:24:37;;;;;;;11.37;6.60;;;;;;;;;;5005310;28;20464;-95
2021/04/07 04:27:04;;;;;;;11.03;5.93;;;;;;;;;;4999483;28;21171;-96
2021/04/07 04:29:30;;;;;;;7.30;6.10;;;;;;;;;;5018462;28;20575;-96
2021/04/07 04:31:57;;;;;;;9.97;6.40;;;;;;;;;;5019240;28;20450;-96
2021/04/07 04:34:23;;;;;;;10.40;6.90;;;;;;;;;;5023692;28;20460;-96
2021/04/07 04:36:49;;;;;;;12.43;6.50;;;;;;;;;;5014737;28;20460;-95
2021/04/07 04:39:16;;;;;;;8.90;6.03;;;;;;;;;;5016476;28;20482;-96
2021/04/07 04:41:42;;;;;;;9.10;6.63;;;;;;;;;;5001416;28;20455;-96
2021/04/07 04:44:08;;;;;;;9.83;6.33;;;;;;;;;;5022680;28;20438;-96
2021/04/07 04:46:34;;;;;;;7.83;5.63;;;;;;;;;;5027739;28;20455;-96
2021/04/07 04:49:02;;;;;;;10.93;6.83;;;;;;;;;;5014038;28;20467;-96
2021/04/07 04:51:28;;;;;;;15.10;6.17;;;;;;;;;;5010611;28;20460;-96
2021/04/07 04:53:55;;;;;;;7.33;5.87;;;;;;;;;;4989696;28;20482;-95
2021/04/07 04:56:21;;;;;;;9.97;6.20;;;;;;;;;;5019175;28;20523;-96
2021/04/07 04:58:47;;;;;;;10.53;6.37;;;;;;;;;;5007141;28;20466;-96
2021/04/07 05:01:13;;;;;;;9.67;7.37;;;;;;;;;;5023404;28;20462;-96
2021/04/07 05:03:48;;;;;;;9.77;5.87;;;;;;;;;;5020897;28;20475;-96
2021/04/07 05:06:15;;;;;;;7.53;6.30;;;;;;;;;;5014225;28;20484;-96
2021/04/07 05:08:46;;;;;;;7.50;6.47;;;;;;;;;;5023339;28;20437;-96
2021/04/07 05:11:12;;;;;;;11.63;7.30;;;;;;;;;;5019004;28;20470;-96
2021/04/07 05:13:39;;;;;;;12.30;8.40;;;;;;;;;;5019492;28;20465;-96
2021/04/07 05:16:09;;;;;;;11.50;8.80;;;;;;;;;;5009659;28;20481;-96
2021/04/07 05:18:36;;;;;;;13.90;8.27;;;;;;;;;;5031702;28;20527;-96
2021/04/07 05:21:02;;;;;;;17.93;9.97;;;;;;;;;;5023002;28;21055;-96
2021/04/07 05:23:30;;;;;;;14.93;9.20;;;;;;;;;;5009104;28;20541;-96
2021/04/07 05:25:57;;;;;;;14.80;10.70;;;;;;;;;;5019938;28;21004;-96
2021/04/07 05:28:23;;;;;;;14.97;10.53;;;;;;;;;;5018865;28;20565;-95
2021/04/07 05:31:01;;;;;;;14.47;10.47;;;;;;;;;;5022032;28;20499;-96
2021/04/07 05:36:28;;;;;;;15.47;11.10;;;;;;;;;;5025369;28;21709;-96
2021/04/07 05:38:55;;;;;;;14.73;10.30;;;;;;;;;;5023382;28;20470;-95
2021/04/07 05:41:22;;;;;;;21.60;11.23;;;;;;;;;;5023425;28;20583;-96
2021/04/07 05:43:50;;;;;;;13.43;10.33;;;;;;;;;;5017999;28;20958;-96
2021/04/07 05:46:17;;;;;;;13.60;9.60;;;;;;;;;;5007930;28;20450;-96
2021/04/07 05:48:43;;;;;;;14.47;9.33;;;;;;;;;;5024085;28;20463;-96
2021/04/07 05:51:09;;;;;;;11.37;9.30;;;;;;;;;;5018798;28;20468;-96
2021/04/07 05:53:35;;;;;;;15.23;8.80;;;;;;;;;;5016404;28;20465;-96
2021/04/07 05:56:02;;;;;;;20.33;10.10;;;;;;;;;;5010588;28;20464;-94
2021/04/07 05:58:29;;;;;;;13.73;9.77;;;;;;;;;;5012639;28;20485;-95
2021/04/07 06:00:55;;;;;;;14.50;10.03;;;;;;;;;;5026006;28;20478;-96
2021/04/07 06:03:21;;;;;;;12.27;9.03;;;;;;;;;;5017042;28;20471;-96
2021/04/07 06:05:52;;;;;;;13.20;9.60;;;;;;;;;;5039219;23;20490;-96
2021/04/07 06:08:19;;;;;;;17.10;12.87;;;;;;;;;;5017931;28;20452;-96
2021/04/07 06:10:47;;;;;;;30.90;21.60;;;;;;;;;;5014174;28;20491;-96
2021/04/07 06:13:25;;;;;;;24.40;16.63;;;;;;;;;;5028327;28;20450;-96
2021/04/07 06:16:12;;;;;;;21.07;16.73;;;;;;;;;;5026219;28;20507;-96
2021/04/07 06:18:39;;;;;;;14.33;12.03;;;;;;;;;;5014030;28;20458;-96
2021/04/07 06:21:07;;;;;;;15.33;13.00;;;;;;;;;;5023994;28;20569;-96
2021/04/07 06:23:34;;;;;;;22.83;15.80;;;;;;;;;;5017875;28;20447;-96
2021/04/07 06:26:00;;;;;;;21.20;14.33;;;;;;;;;;5024718;28;20439;-96
2021/04/07 06:28:27;;;;;;;23.03;12.57;;;;;;;;;;5013736;28;20446;-94
2021/04/07 06:30:53;;;;;;;14.17;8.43;;;;;;;;;;5013737;28;20498;-96
2021/04/07 06:33:20;;;;;;;12.03;8.20;;;;;;;;;;5018540;28;20460;-96
2021/04/07 06:35:52;;;;;;;10.00;8.33;;;;;;;;;;5008315;28;20497;-96
2021/04/07 06:38:18;;;;;;;13.70;9.77;;;;;;;;;;5011688;28;20461;-96
2021/04/07 06:40:51;;;;;;;19.03;10.13;;;;;;;;;;5014665;28;20432;-96
2021/04/07 06:43:35;;;;;;;15.80;9.73;;;;;;;;;;5016165;28;20425;-96
2021/04/07 06:46:02;;;;;;;13.77;9.10;;;;;;;;;;5011945;28;20491;-96
2021/04/07 06:48:29;;;;;;;15.17;9.47;;;;;;;;;;5016001;28;20448;-94
2021/04/07 06:50:55;;;;;;;13.47;8.93;;;;;;;;;;5011677;28;20484;-94
2021/04/07 06:53:23;;;;;;;15.70;10.30;;;;;;;;;;5018692;28;20462;-95
2021/04/07 06:55:49;;;;;;;13.37;10.50;;;;;;;;;;5011140;28;20452;-96
2021/04/07 06:58:15;;;;;;;14.37;9.30;;;;;;;;;;5026240;28;20498;-94
2021/04/07 07:00:42;;;;;;;11.30;8.70;;;;;;;;;;5016568;28;20452;-96
2021/04/07 07:03:10;;;;;;;19.53;9.70;;;;;;;;;;5014221;28;20460;-95
2021/04/07 07:05:39;;;;;;;12.53;9.10;;;;;;;;;;5016170;28;20543;-95
2021/04/07 07:08:06;;;;;;;13.93;9.93;;;;;;;;;;5018722;28;20503;-96
2021/04/07 07:10:36;;;;;;;14.70;8.97;;;;;;;;;;5010635;28;20495;-96
2021/04/07 07:13:02;;;;;;;15.83;9.10;;;;;;;;;;5010110;28;20479;-96
2021/04/07 07:15:29;;;;;;;14.80;11.27;;;;;;;;;;5025719;28;20456;-95
2021/04/07 07:17:55;;;;;;;24.20;20.87;;;;;;;;;;5014644;28;20444;-95
2021/04/07 07:20:34;;;;;;;23.70;17.70;;;;;;;;;;5013490;28;20467;-94
2021/04/07 07:23:03;;;;;;;20.73;12.30;;;;;;;;;;5019358;28;20457;-96
2021/04/07 07:25:30;;;;;;;17.87;14.20;;;;;;;;;;5019332;28;20471;-95
2021/04/07 07:27:59;;;;;;;35.07;28.27;;;;;;;;;;5010388;28;20512;-95
2021/04/07 07:30:35;;;;;;;30.87;21.37;;;;;;;;;;5019049;28;20772;-96
2021/04/07 07:33:01;;;;;;;12.07;9.60;;;;;;;;;;5012550;28;20439;-92
2021/04/07 07:35:35;;;;;;;25.77;20.57;;;;;;;;;;5015951;28;20466;-96
2021/04/07 07:38:12;;;;;;;22.13;17.53;;;;;;;;;;5018251;28;20456;-96
2021/04/07 07:40:38;;;;;;;10.23;7.43;;;;;;;;;;5015115;28;20436;-96
2021/04/07 07:43:06;;;;;;;8.70;7.50;;;;;;;;;;5012804;28;20468;-96
2021/04/07 07:45:44;;;;;;;8.10;6.80;;;;;;;;;;5008299;28;20449;-96
2021/04/07 07:48:18;;;;;;;6.47;5.73;;;;;;;;;;5013332;28;20491;-96
2021/04/07 07:50:45;;;;;;;6.80;5.60;;;;;;;;;;5016066;28;20500;-95
2021/04/07 07:53:15;;;;;;;7.03;5.80;;;;;;;;;;5012521;28;20463;-96
2021/04/07 07:55:42;;;;;;;8.60;6.10;;;;;;;;;;5009496;28;20435;-95
2021/04/07 07:58:08;;;;;;;6.67;5.50;;;;;;;;;;5019297;28;20452;-96
2021/04/07 08:00:34;;;;;;;7.53;6.80;;;;;;;;;;5019364;28;20463;-94
2021/04/07 08:03:10;;;;;;;18.13;15.97;;;;;;;;;;5014142;28;20445;-96
2021/04/07 08:05:38;;;;;;;16.93;13.00;;;;;;;;;;5017055;28;20515;-96
2021/04/07 08:08:05;;;;;;;19.80;14.97;;;;;;;;;;5081062;23;20489;-96
2021/04/07 08:10:41;;;;;;;4.60;4.20;;;;;;;;;;5010186;28;20461;-96
2021/04/07 08:13:08;;;;;;;9.97;6.70;;;;;;;;;;5020052;28;20455;-96
2021/04/07 08:15:50;;;;;;;5.40;4.33;;;;;;;;;;5035695;28;20466;-96
2021/04/07 08:23:24;;;;;;;7.17;4.03;;;;;;;;;;5103783;23;20445;-96
2021/04/07 08:25:53;;;;;;;5.70;4.70;;;;;;;;;;5147258;22;20508;-96
2021/04/07 08:28:20;;;;;;;5.20;4.70;;;;;;;;;;5092240;23;21310;-95
2021/04/07 08:30:50;;;;;;;4.93;4.53;;;;;;;;;;5028209;28;20487;-96
2021/04/07 08:33:17;;;;;;;9.20;8.30;;;;;;;;;;5028472;28;20467;-96
2021/04/07 08:35:50;;;;;;;6.40;5.30;;;;;;;;;;5036396;28;20478;-95
2021/04/07 08:38:16;;;;;;;6.30;4.63;;;;;;;;;;5032246;28;20514;-96
2021/04/07 08:40:44;;;;;;;20.07;16.90;;;;;;;;;;5023814;28;20443;-95
2021/04/07 08:43:13;;;;;;;5.43;4.93;;;;;;;;;;5024757;28;20448;-94
2021/04/07 08:52:27;;;;;;;13.33;6.20;;;;;;;;;;5072176;23;20454;-96
2021/04/07 08:57:30;;;;;;;6.97;5.90;;;;;;;;;;3378725;23;20475;-95
2021/04/07 08:59:58;;;;;;;6.10;5.17;;;;;;;;;;5032022;28;20487;-92
2021/04/07 09:02:27;;;;;;;4.90;4.40;;;;;;;;;;5015777;28;20460;-95
2021/04/07 09:05:01;;;;;;;5.87;4.90;;;;;;;;;;5024251;28;20470;-96
2021/04/07 09:07:37;;;;;;;7.10;5.83;;;;;;;;;;5016478;28;20498;-96
2021/04/07 09:10:14;;;;;;;6.60;5.90;;;;;;;;;;5016355;28;20476;-96
2021/04/07 09:12:41;;;;;;;5.70;5.20;;;;;;;;;;5015414;28;20463;-96
2021/04/07 09:15:14;;;;;;;5.67;5.10;;;;;;;;;;5020485;28;20482;-95
2021/04/07 09:17:49;;;;;;;5.70;5.07;;;;;;;;;;4142461;23;25864880;-96
2021/04/07 09:20:37;;;;;;;7.17;6.20;;;;;;;;;;5048049;23;20247;-96
2021/04/07 09:23:16;;;;;;;6.97;5.47;;;;;;;;;;5033539;28;20452;-96
2021/04/07 09:28:29;;;;;;;7.47;6.07;;;;;;;;;;5314671;22;20478;-95
2021/04/07 09:31:04;;;;;;;10.13;7.27;;;;;;;;;;5066501;28;20474;-96
2021/04/07 09:38:45;;;;;;;9.30;6.70;;;;;;;;;;5331577;22;20464;-96
2021/04/07 09:41:12;;;;;;;6.77;6.07;;;;;;;;;;5031062;28;20475;-96
2021/04/07 09:43:45;;;;;;;6.70;6.03;;;;;;;;;;5035248;28;20452;-96
2021/04/07 09:46:12;;;;;;;7.77;6.30;;;;;;;;;;5030874;28;20519;-93
2021/04/07 09:48:39;;;;;;;6.03;4.93;;;;;;;;;;5027889;28;20451;-96
2021/04/07 09:51:25;;;;;;;6.60;6.00;;;;;;;;;;5026592;28;20506;-96
2021/04/07 09:53:52;;;;;;;7.67;6.30;;;;;;;;;;5010593;28;20459;-95
2021/04/07 09:56:18;;;;;;;7.50;6.70;;;;;;;;;;5028302;28;20486;-95
2021/04/07 09:58:53;;;;;;;9.77;7.50;;;;;;;;;;5028222;28;20455;-94
2021/04/07 10:01:20;;;;;;;7.40;5.90;;;;;;;;;;5029875;28;20458;-93
2021/04/07 10:03:50;;;;;;;8.13;7.00;;;;;;;;;;5026108;28;20459;-96
2021/04/07 10:06:19;;;;;;;9.57;7.80;;;;;;;;;;5025233;28;20499;-93
2021/04/07 10:08:45;;;;;;;7.87;7.00;;;;;;;;;;5026772;28;20482;-96
2021/04/07 10:11:11;;;;;;;9.80;8.27;;;;;;;;;;5029514;28;20486;-96
2021/04/07 10:13:38;;;;;;;8.30;6.20;;;;;;;;;;5032030;28;20564;-94
2021/04/07 10:16:13;;;;;;;8.30;6.97;;;;;;;;;;5026464;28;20468;-93
2021/04/07 10:18:40;;;;;;;9.00;6.50;;;;;;;;;;5023632;28;20459;-94
2021/04/07 10:21:15;;;;;;;10.10;7.90;;;;;;;;;;5027828;28;20444;-95
2021/04/07 10:23:43;;;;;;;10.07;8.07;;;;;;;;;;5022884;28;20460;-96
2021/04/07 10:26:09;;;;;;;8.70;6.40;;;;;;;;;;5026535;28;20506;-95
2021/04/07 10:28:35;;;;;;;9.50;6.70;;;;;;;;;;5017379;28;20441;-96
2021/04/07 10:31:07;;;;;;;9.40;7.60;;;;;;;;;;5029693;28;20501;-96
2021/04/07 10:39:07;;;;;;;13.00;8.37;;;;;;;;;;5273801;23;20496;-96
2021/04/07 10:46:41;;;;;;;11.20;10.00;;;;;;;;;;5530052;22;20487;-96
2021/04/07 10:49:16;;;;;;;16.90;11.90;;;;;;;;;;5346314;22;20578;-96
2021/04/07 10:52:09;;;;;;;14.60;11.23;;;;;;;;;;5037553;28;20491;-96
2021/04/07 10:57:45;;;;;;;9.30;7.07;;;;;;;;;;5027459;28;20482;-94
2021/04/07 11:00:12;;;;;;;7.60;5.80;;;;;;;;;;5022857;28;20515;-93
2021/04/07 11:02:51;;;;;;;11.03;9.90;;;;;;;;;;5023067;28;20464;-96
2021/04/07 11:05:20;;;;;;;8.10;6.97;;;;;;;;;;4990258;28;20452;-96
2021/04/07 11:07:47;;;;;;;7.00;6.00;;;;;;;;;;5017377;28;20463;-95
2021/04/07 11:10:14;;;;;;;8.07;7.13;;;;;;;;;;5020899;28;20487;-94
2021/04/07 11:12:40;;;;;;;11.03;8.30;;;;;;;;;;5021237;28;20471;-96
2021/04/07 11:15:18;;;;;;;10.77;9.40;;;;;;;;;;5026341;28;20456;-96
2021/04/07 11:17:52;;;;;;;12.83;9.83;;;;;;;;;;5026757;28;20462;-94
2021/04/07 11:20:19;;;;;;;9.43;8.40;;;;;;;;;;5026807;28;20474;-95
2021/04/07 11:22:45;;;;;;;10.80;8.43;;;;;;;;;;5022727;28;20455;-92
2021/04/07 11:25:11;;;;;;;12.07;9.50;;;;;;;;;;5024528;28;20509;-96
2021/04/07 11:27:38;;;;;;;10.60;8.73;;;;;;;;;;5021535;28;20474;-95
2021/04/07 11:30:05;;;;;;;14.03;10.67;;;;;;;;;;5022497;28;20494;-93
2021/04/07 11:32:34;;;;;;;12.70;9.03;;;;;;;;;;5022074;28;20458;-95
2021/04/07 11:35:05;;;;;;;11.00;9.13;;;;;;;;;;5023521;28;20502;-93
2021/04/07 11:37:37;;;;;;;10.70;8.67;;;;;;;;;;5022858;28;20511;-93
2021/04/07 11:40:06;;;;;;;14.80;8.37;;;;;;;;;;5022726;28;20459;-94
2021/04/07 11:42:43;;;;;;;10.10;7.13;;;;;;;;;;5022782;28;20465;-91
2021/04/07 11:45:10;;;;;;;12.50;8.37;;;;;;;;;;5025585;28;20456;-92
2021/04/07 11:47:36;;;;;;;10.43;9.33;;;;;;;;;;5024505;28;20451;-93
2021/04/07 11:50:03;;;;;;;16.67;10.13;;;;;;;;;;5027004;28;20586;-93
2021/04/07 11:52:31;;;;;;;10.17;8.90;;;;;;;;;;5017505;28;20470;-96
2021/04/07 11:54:57;;;;;;;9.13;8.00;;;;;;;;;;5023454;28;20467;-95
2021/04/07 11:57:24;;;;;;;9.20;7.53;;;;;;;;;;5025706;28;20460;-94
2021/04/07 11:59:52;;;;;;;6.43;5.80;;;;;;;;;;5023258;28;20452;-93
2021/04/07 12:02:18;;;;;;;9.10;8.20;;;;;;;;;;5024433;28;20452;-93
2021/04/07 12:04:46;;;;;;;6.63;5.77;;;;;;;;;;5023208;28;20510;-95
2021/04/07 12:07:13;;;;;;;7.10;6.40;;;;;;;;;;5024433;28;20460;-96
2021/04/07 12:09:39;;;;;;;8.40;6.80;;;;;;;;;;5022951;28;20464;-94
2021/04/07 12:12:06;;;;;;;8.63;6.43;;;;;;;;;;5023436;28;20495;-94
2021/04/07 12:14:45;;;;;;;7.93;6.87;;;;;;;;;;5022917;28;20464;-96
2021/04/07 12:17:17;;;;;;;7.50;6.63;;;;;;;;;;5030823;28;20509;-96
2021/04/07 12:19:43;;;;;;;11.90;7.20;;;;;;;;;;5021379;28;20455;-94
2021/04/07 12:22:12;;;;;;;10.60;6.80;;;;;;;;;;5033343;28;20462;-96
2021/04/07 12:24:45;;;;;;;8.20;7.33;;;;;;;;;;5031625;28;20543;-94
2021/04/07 12:27:13;;;;;;;7.40;6.70;;;;;;;;;;5029165;28;20456;-96
2021/04/07 12:29:39;;;;;;;11.80;8.23;;;;;;;;;;5024795;28;20439;-96
2021/04/07 12:32:07;;;;;;;13.37;7.93;;;;;;;;;;5024069;28;20487;-93
2021/04/07 12:34:34;;;;;;;13.53;8.70;;;;;;;;;;5024045;28;20456;-95
2021/04/07 12:37:00;;;;;;;7.80;6.40;;;;;;;;;;5022712;28;20455;-93
2021/04/07 12:39:29;;;;;;;8.90;7.53;;;;;;;;;;5025545;28;20460;-95
2021/04/07 12:41:58;;;;;;;9.83;8.27;;;;;;;;;;5029659;28;20478;-96
2021/04/07 12:44:24;;;;;;;12.70;9.07;;;;;;;;;;5025343;28;20459;-96
2021/04/07 12:46:54;;;;;;;15.53;10.10;;;;;;;;;;5024686;23;20492;-96
2021/04/07 12:49:20;;;;;;;11.53;8.83;;;;;;;;;;5024881;28;20459;-95
2021/04/07 12:51:46;;;;;;;16.33;9.67;;;;;;;;;;5029717;28;20487;-94
2021/04/07 12:54:13;;;;;;;9.70;7.30;;;;;;;;;;5030706;28;20482;-95
2021/04/07 12:56:40;;;;;;;7.97;6.80;;;;;;;;;;5024192;28;20466;-94
2021/04/07 12:59:08;;;;;;;7.00;6.27;;;;;;;;;;5010778;28;20432;-94
2021/04/07 13:01:39;;;;;;;9.00;7.60;;;;;;;;;;5024146;28;20463;-96
2021/04/07 13:04:05;;;;;;;12.80;8.37;;;;;;;;;;5025484;28;20464;-96
2021/04/07 13:06:31;;;;;;;8.07;6.57;;;;;;;;;;5020155;28;20452;-94
2021/04/07 13:08:59;;;;;;;13.03;7.90;;;;;;;;;;5027316;28;20423;-95
2021/04/07 13:11:28;;;;;;;8.37;7.23;;;;;;;;;;5017327;28;20494;-96
2021/04/07 13:13:54;;;;;;;8.47;7.30;;;;;;;;;;5025678;28;20864;-96
2021/04/07 13:16:22;;;;;;;6.53;5.87;;;;;;;;;;5025032;28;20475;-92
2021/04/07 13:18:48;;;;;;;8.90;6.70;;;;;;;;;;5025869;28;20459;-93
2021/04/07 13:21:14;;;;;;;6.83;6.13;;;;;;;;;;5027283;28;20448;-93
2021/04/07 13:23:40;;;;;;;7.60;6.57;;;;;;;;;;5026359;28;20519;-96
2021/04/07 13:26:06;;;;;;;8.47;7.30;;;;;;;;;;5024349;28;20460;-93
2021/04/07 13:28:33;;;;;;;10.43;8.53;;;;;;;;;;5027509;28;20444;-96
2021/04/07 13:31:02;;;;;;;9.50;8.30;;;;;;;;;;5024110;28;20487;-96
2021/04/07 13:33:34;;;;;;;14.37;10.57;;;;;;;;;;5020723;28;20495;-95
2021/04/07 13:36:10;;;;;;;13.40;9.30;;;;;;;;;;5024267;28;20480;-96
2021/04/07 13:38:44;;;;;;;18.20;9.43;;;;;;;;;;5028534;28;20463;-96
2021/04/07 13:44:06;;;;;;;14.40;8.53;;;;;;;;;;4966263;28;20486;-94
2021/04/07 13:46:32;;;;;;;13.87;9.57;;;;;;;;;;5000146;28;20472;-91
2021/04/07 13:48:59;;;;;;;12.97;9.93;;;;;;;;;;5017825;28;20798;-89
2021/04/07 13:51:26;;;;;;;13.20;9.67;;;;;;;;;;5019845;28;20491;-89
2021/04/07 13:53:52;;;;;;;11.87;8.50;;;;;;;;;;5018093;28;20456;-90
2021/04/07 13:56:22;;;;;;;10.60;7.90;;;;;;;;;;5012640;28;21476;-94
2021/04/07 13:58:49;;;;;;;11.40;8.37;;;;;;;;;;5024593;28;20444;-93
2021/04/07 14:01:15;;;;;;;14.90;9.80;;;;;;;;;;5033231;28;20471;-91
2021/04/07 14:03:41;;;;;;;10.90;7.93;;;;;;;;;;5021465;28;20915;-89
2021/04/07 14:06:10;;;;;;;17.20;9.70;;;;;;;;;;5023362;28;20463;-94
2021/04/07 14:08:36;;;;;;;11.73;9.50;;;;;;;;;;5026618;28;20511;-96
2021/04/07 14:11:08;;;;;;;17.10;10.20;;;;;;;;;;5029402;28;20517;-95
2021/04/07 14:13:41;;;;;;;9.47;7.40;;;;;;;;;;5028679;28;20491;-93
2021/04/07 14:16:07;;;;;;;11.50;10.40;;;;;;;;;;5026306;28;20448;-95
2021/04/07 14:18:33;;;;;;;13.00;10.70;;;;;;;;;;5027135;28;20459;-95
2021/04/07 14:20:59;;;;;;;8.87;7.53;;;;;;;;;;5029473;28;20471;-95
2021/04/07 14:23:30;;;;;;;10.27;7.33;;;;;;;;;;5036003;28;20455;-93
2021/04/07 14:25:56;;;;;;;7.83;7.03;;;;;;;;;;5028658;28;20474;-96
2021/04/07 14:28:27;;;;;;;8.10;7.07;;;;;;;;;;5033856;28;20451;-96
2021/04/07 14:30:53;;;;;;;9.13;8.07;;;;;;;;;;5027326;28;20466;-95
2021/04/07 14:33:20;;;;;;;10.60;8.00;;;;;;;;;;5036774;28;20443;-96
2021/04/07 14:35:49;;;;;;;12.87;9.40;;;;;;;;;;5029919;28;20788;-96
2021/04/07 14:38:15;;;;;;;9.57;8.37;;;;;;;;;;5024349;28;20448;-96
2021/04/07 14:40:43;;;;;;;11.90;7.90;;;;;;;;;;5017659;28;20456;-90
2021/04/07 14:43:09;;;;;;;14.33;9.03;;;;;;;;;;5025106;28;20467;-96
2021/04/07 14:45:38;;;;;;;13.63;9.70;;;;;;;;;;5025566;28;20538;-93
2021/04/07 14:48:04;;;;;;;12.27;8.60;;;;;;;;;;5025491;28;20533;-91
2021/04/07 14:50:32;;;;;;;16.90;10.13;;;;;;;;;;5024927;28;20495;-93
2021/04/07 14:53:00;;;;;;;10.70;8.40;;;;;;;;;;5025769;28;20466;-96
2021/04/07 14:55:26;;;;;;;13.27;8.90;;;;;;;;;;4999437;28;20540;-92
2021/04/07 14:57:53;;;;;;;19.73;11.97;;;;;;;;;;5021326;28;20454;-95
2021/04/07 15:00:20;;;;;;;7.73;6.80;;;;;;;;;;5029822;28;20448;-94
2021/04/07 15:02:47;;;;;;;11.07;9.30;;;;;;;;;;5021921;28;20459;-92
2021/04/07 15:05:13;;;;;;;14.70;10.80;;;;;;;;;;5029627;28;20518;-89
2021/04/07 15:07:39;;;;;;;14.80;9.53;;;;;;;;;;5016540;28;20463;-96
2021/04/07 15:10:06;;;;;;;12.63;10.10;;;;;;;;;;5022780;28;20448;-93
2021/04/07 15:12:32;;;;;;;10.63;8.30;;;;;;;;;;5021963;28;21108;-94
2021/04/07 15:15:00;;;;;;;11.77;10.53;;;;;;;;;;5024540;28;20443;-96
2021/04/07 15:17:26;;;;;;;17.83;14.20;;;;;;;;;;5021349;28;20455;-92
2021/04/07 15:19:52;;;;;;;18.17;12.83;;;;;;;;;;5022663;28;20817;-96
2021/04/07 15:22:18;;;;;;;11.20;10.03;;;;;;;;;;5021540;28;20463;-96
2021/04/07 15:24:47;;;;;;;15.30;11.40;;;;;;;;;;5020233;28;20456;-94